createdAt,value
2022-10-20T00:01:40.368Z,7.86
2022-10-20T00:04:09.399Z,7.78
2022-10-20T00:06:36.183Z,7.78
2022-10-20T00:09:04.337Z,7.78
2022-10-20T00:11:31.756Z,7.72
2022-10-20T00:14:00.193Z,7.77
2022-10-20T00:16:33.072Z,7.78
2022-10-20T00:19:02.946Z,7.73
2022-10-20T00:21:37.990Z,7.64
2022-10-20T00:24:12.118Z,7.63
2022-10-20T00:26:52.758Z,7.59
2022-10-20T00:29:27.839Z,7.50
2022-10-20T00:31:56.355Z,7.48
2022-10-20T00:34:33.047Z,7.53
2022-10-20T00:36:59.577Z,7.52
2022-10-20T00:42:19.826Z,7.34
2022-10-20T00:44:55.056Z,7.37
2022-10-20T00:47:42.586Z,7.39
2022-10-20T00:50:28.781Z,7.40
2022-10-20T00:53:13.023Z,7.36
2022-10-20T00:55:45.462Z,7.38
2022-10-20T00:58:12.009Z,7.37
2022-10-20T01:00:48.272Z,7.31
2022-10-20T01:03:17.544Z,7.29
2022-10-20T01:05:48.758Z,7.32
2022-10-20T01:08:18.508Z,7.36
2022-10-20T01:10:56.748Z,7.22
2022-10-20T01:13:32.608Z,7.24
2022-10-20T01:16:08.666Z,7.21
2022-10-20T01:18:46.396Z,7.21
2022-10-20T01:21:52.861Z,7.10
2022-10-20T01:24:23.134Z,7.02
2022-10-20T01:27:00.899Z,6.98
2022-10-20T01:29:27.406Z,6.94
2022-10-20T01:32:07.344Z,6.84
2022-10-20T01:34:46.884Z,6.81
2022-10-20T01:37:48.384Z,6.72
2022-10-20T01:40:28.307Z,6.65
2022-10-20T01:42:59.841Z,6.63
2022-10-20T01:45:33.195Z,6.55
2022-10-20T01:48:05.588Z,6.52
2022-10-20T01:50:44.913Z,6.53
2022-10-20T01:53:15.406Z,6.60
2022-10-20T01:55:51.777Z,6.63
2022-10-20T01:58:22.550Z,6.62
2022-10-20T02:01:01.086Z,6.52
2022-10-20T02:03:40.172Z,6.58
2022-10-20T02:06:23.485Z,6.50
2022-10-20T02:08:52.101Z,6.55
2022-10-20T02:11:25.769Z,6.57
2022-10-20T02:13:59.358Z,6.60
2022-10-20T02:16:38.960Z,6.64
2022-10-20T02:19:08.176Z,6.67
2022-10-20T02:21:37.688Z,6.61
2022-10-20T02:24:06.329Z,6.63
2022-10-20T02:26:34.131Z,6.63
2022-10-20T02:29:04.530Z,6.66
2022-10-20T02:31:35.965Z,6.62
2022-10-20T02:34:03.169Z,6.60
2022-10-20T02:36:29.860Z,6.55
2022-10-20T02:39:03.560Z,6.57
2022-10-20T02:41:32.003Z,6.53
2022-10-20T02:44:08.737Z,6.53
2022-10-20T02:46:37.627Z,6.55
2022-10-20T02:49:11.694Z,6.42
2022-10-20T02:51:41.803Z,6.41
2022-10-20T02:54:10.593Z,6.39
2022-10-20T02:56:38.485Z,6.38
2022-10-20T02:59:04.992Z,6.38
2022-10-20T03:01:31.627Z,6.36
2022-10-20T03:04:03.375Z,6.30
2022-10-20T03:06:30.054Z,6.32
2022-10-20T03:08:56.927Z,6.28
2022-10-20T03:11:23.744Z,6.30
2022-10-20T03:13:55.759Z,6.22
2022-10-20T03:16:31.456Z,6.20
2022-10-20T03:19:01.555Z,6.25
2022-10-20T03:21:31.941Z,6.22
2022-10-20T03:24:11.922Z,6.18
2022-10-20T03:26:40.026Z,6.10
2022-10-20T03:29:07.077Z,6.12
2022-10-20T03:31:38.139Z,6.05
2022-10-20T03:34:06.523Z,6.03
2022-10-20T03:36:36.245Z,5.96
2022-10-20T03:39:05.807Z,5.86
2022-10-20T03:41:32.729Z,5.75
2022-10-20T03:43:59.365Z,5.73
2022-10-20T03:46:27.045Z,5.70
2022-10-20T03:48:56.944Z,5.63
2022-10-20T03:51:23.626Z,5.56
2022-10-20T03:53:50.321Z,5.59
2022-10-20T03:56:20.553Z,5.58
2022-10-20T03:58:47.747Z,5.51
2022-10-20T04:01:19.154Z,5.49
2022-10-20T04:03:45.883Z,5.45
2022-10-20T04:06:13.315Z,5.39
2022-10-20T04:08:48.736Z,5.39
2022-10-20T04:11:15.639Z,5.43
2022-10-20T04:13:42.384Z,5.49
2022-10-20T04:16:09.164Z,5.47
2022-10-20T04:18:35.800Z,5.52
2022-10-20T04:21:02.367Z,5.55
2022-10-20T04:23:28.838Z,5.50
2022-10-20T04:25:55.366Z,5.57
2022-10-20T04:28:21.917Z,5.59
2022-10-20T04:30:48.652Z,5.53
2022-10-20T04:33:15.214Z,5.48
2022-10-20T04:35:41.889Z,5.40
2022-10-20T04:38:08.471Z,5.32
2022-10-20T04:40:34.955Z,5.34
2022-10-20T04:43:01.429Z,5.34
2022-10-20T04:45:28.088Z,5.28
2022-10-20T04:47:54.601Z,5.18
2022-10-20T04:50:21.195Z,5.11
2022-10-20T04:52:58.340Z,5.06
2022-10-20T04:55:25.004Z,5.12
2022-10-20T04:57:51.427Z,5.16
2022-10-20T05:00:17.994Z,5.20
2022-10-20T05:02:44.478Z,5.20
2022-10-20T05:05:11.002Z,5.16
2022-10-20T05:07:37.821Z,5.15
2022-10-20T05:10:05.011Z,5.17
2022-10-20T05:12:31.730Z,5.15
2022-10-20T05:14:58.246Z,5.16
2022-10-20T05:17:30.774Z,5.08
2022-10-20T05:19:57.258Z,5.06
2022-10-20T05:22:23.774Z,5.03
2022-10-20T05:24:50.316Z,5.04
2022-10-20T05:27:16.906Z,5.06
2022-10-20T05:29:43.595Z,5.11
2022-10-20T05:32:10.594Z,5.07
2022-10-20T05:34:38.459Z,5.08
2022-10-20T05:37:05.128Z,5.09
2022-10-20T05:39:31.689Z,5.11
2022-10-20T05:41:58.153Z,5.12
2022-10-20T05:44:24.804Z,5.12
2022-10-20T05:46:51.268Z,5.12
2022-10-20T05:49:18.424Z,5.18
2022-10-20T05:51:45.784Z,5.21
2022-10-20T05:54:12.589Z,5.27
2022-10-20T05:56:39.757Z,5.32
2022-10-20T05:59:06.264Z,5.37
2022-10-20T06:01:46.843Z,5.44
2022-10-20T06:04:14.831Z,5.56
2022-10-20T06:06:41.467Z,5.63
2022-10-20T06:09:08.748Z,5.67
2022-10-20T06:11:39.252Z,5.73
2022-10-20T06:14:07.095Z,5.74
2022-10-20T06:16:33.966Z,5.80
2022-10-20T06:19:00.744Z,5.92
2022-10-20T06:21:29.177Z,5.97
2022-10-20T06:23:59.785Z,6.01
2022-10-20T06:26:32.194Z,6.09
2022-10-20T06:29:03.919Z,6.17
2022-10-20T06:31:30.931Z,6.28
2022-10-20T06:33:58.189Z,6.35
2022-10-20T06:36:26.347Z,6.48
2022-10-20T06:38:54.271Z,6.58
2022-10-20T06:41:21.257Z,6.65
2022-10-20T06:43:47.815Z,6.67
2022-10-20T06:46:18.745Z,6.77
2022-10-20T06:48:45.793Z,6.82
2022-10-20T06:51:13.667Z,6.92
2022-10-20T06:53:44.070Z,6.90
2022-10-20T06:56:18.342Z,6.94
2022-10-20T06:58:46.043Z,7.01
2022-10-20T07:01:14.309Z,7.03
2022-10-20T07:03:41.212Z,6.99
2022-10-20T07:06:08.311Z,7.10
2022-10-20T07:08:35.765Z,7.13
2022-10-20T07:11:04.269Z,7.17
2022-10-20T07:13:31.276Z,7.27
2022-10-20T07:15:59.379Z,7.33
2022-10-20T07:18:27.222Z,7.39
2022-10-20T07:21:03.818Z,7.39
2022-10-20T07:23:31.267Z,7.50
2022-10-20T07:26:04.872Z,7.61
2022-10-20T07:28:31.798Z,7.74
2022-10-20T07:31:01.909Z,7.81
2022-10-20T07:33:28.541Z,7.90
2022-10-20T07:35:55.197Z,7.99
2022-10-20T07:38:21.735Z,8.01
2022-10-20T07:40:48.413Z,8.07
2022-10-20T07:43:15.117Z,8.12
2022-10-20T07:45:44.628Z,8.15
2022-10-20T07:48:11.266Z,8.23
2022-10-20T07:50:37.938Z,8.35
2022-10-20T07:53:05.904Z,8.41
2022-10-20T07:55:38.493Z,8.48
2022-10-20T07:58:06.433Z,8.57
2022-10-20T08:00:33.259Z,8.65
2022-10-20T08:02:59.989Z,8.69
2022-10-20T08:05:26.699Z,8.80
2022-10-20T08:07:53.298Z,8.87
2022-10-20T08:10:22.361Z,8.86
2022-10-20T08:12:50.324Z,8.87
2022-10-20T08:15:18.231Z,8.85
2022-10-20T08:17:44.889Z,8.89
2022-10-20T08:20:27.131Z,8.82
2022-10-20T08:22:56.425Z,8.85
2022-10-20T08:25:23.083Z,8.87
2022-10-20T08:27:49.797Z,8.95
2022-10-20T08:30:23.753Z,8.98
2022-10-20T08:32:52.326Z,9.06
2022-10-20T08:35:19.430Z,9.11
2022-10-20T08:37:50.159Z,9.24
2022-10-20T08:40:24.374Z,9.31
2022-10-20T08:42:51.165Z,9.38
2022-10-20T08:45:21.755Z,9.55
2022-10-20T08:47:54.349Z,9.52
2022-10-20T08:50:24.184Z,9.64
2022-10-20T08:52:54.178Z,9.71
2022-10-20T08:55:33.041Z,9.78
2022-10-20T08:58:35.039Z,9.77
2022-10-20T09:01:13.984Z,9.77
2022-10-20T09:03:41.645Z,9.89
2022-10-20T09:06:15.681Z,9.94
2022-10-20T09:08:43.246Z,9.98
2022-10-20T09:11:35.655Z,9.96
2022-10-20T09:14:10.558Z,10.15
2022-10-20T09:16:58.662Z,10.15
2022-10-20T09:19:27.747Z,10.24
2022-10-20T09:22:05.871Z,10.25
2022-10-20T09:24:34.700Z,10.24
2022-10-20T09:27:42.297Z,10.29
2022-10-20T09:30:20.706Z,10.41
2022-10-20T09:32:56.675Z,10.43
2022-10-20T09:35:35.603Z,10.33
2022-10-20T09:38:22.014Z,10.41
2022-10-20T09:41:07.559Z,10.53
2022-10-20T09:43:46.408Z,10.58
2022-10-20T09:46:16.726Z,10.65
2022-10-20T09:48:50.546Z,10.74
2022-10-20T09:51:24.740Z,10.61
2022-10-20T09:54:14.541Z,10.71
2022-10-20T09:56:52.314Z,11.02
2022-10-20T09:59:21.105Z,11.04
2022-10-20T10:01:58.725Z,11.15
2022-10-20T10:04:33.721Z,11.25
2022-10-20T10:07:01.993Z,11.12
2022-10-20T10:09:31.966Z,11.11
2022-10-20T10:11:59.920Z,11.14
2022-10-20T10:14:29.577Z,11.02
2022-10-20T10:16:58.511Z,11.18
2022-10-20T10:19:26.879Z,11.25
2022-10-20T10:21:55.494Z,11.35
2022-10-20T10:24:29.977Z,11.52
2022-10-20T10:26:56.961Z,11.45
2022-10-20T10:29:25.189Z,11.51
2022-10-20T10:32:11.986Z,11.55
2022-10-20T10:34:43.248Z,11.54
2022-10-20T10:37:14.498Z,11.64
2022-10-20T10:39:41.403Z,11.60
2022-10-20T10:42:25.934Z,11.67
2022-10-20T10:45:13.522Z,11.51
2022-10-20T10:48:15.526Z,11.61
2022-10-20T10:50:47.501Z,11.80
2022-10-20T10:53:17.130Z,11.80
2022-10-20T10:55:53.041Z,11.77
2022-10-20T10:58:19.609Z,11.63
2022-10-20T11:01:02.065Z,11.53
2022-10-20T11:03:37.643Z,11.54
2022-10-20T11:06:30.179Z,11.45
2022-10-20T11:09:05.876Z,11.48
2022-10-20T11:11:53.402Z,11.58
2022-10-20T11:14:26.028Z,11.70
2022-10-20T11:16:59.841Z,11.79
2022-10-20T11:19:44.946Z,11.69
2022-10-20T11:22:20.347Z,11.71
2022-10-20T11:25:11.009Z,11.81
2022-10-20T11:27:38.396Z,11.85
2022-10-20T11:30:18.279Z,11.87
2022-10-20T11:32:50.956Z,11.99
2022-10-20T11:35:20.626Z,12.18
2022-10-20T11:38:11.056Z,12.31
2022-10-20T11:40:39.048Z,12.23
2022-10-20T11:43:24.529Z,12.30
2022-10-20T11:45:54.242Z,12.34
2022-10-20T11:48:34.462Z,12.57
2022-10-20T11:51:07.365Z,12.73
2022-10-20T11:53:37.024Z,12.90
2022-10-20T11:56:15.389Z,12.92
2022-10-20T11:59:00.277Z,12.95
2022-10-20T12:01:38.799Z,13.17
2022-10-20T12:04:05.353Z,13.13
2022-10-20T12:06:54.254Z,13.01
2022-10-20T12:12:18.110Z,13.22
2022-10-20T12:14:49.527Z,13.19
2022-10-20T12:17:35.568Z,13.23
2022-10-20T12:20:20.393Z,13.42
2022-10-20T12:22:49.602Z,13.41
2022-10-20T12:25:25.133Z,13.56
2022-10-20T12:28:10.705Z,13.60
2022-10-20T12:30:37.427Z,13.47
2022-10-20T12:33:18.000Z,13.54
2022-10-20T12:36:13.423Z,13.51
2022-10-20T12:38:41.477Z,13.46
2022-10-20T12:41:08.934Z,13.52
2022-10-20T12:43:48.180Z,13.33
2022-10-20T12:46:20.677Z,13.60
2022-10-20T12:48:49.187Z,13.82
2022-10-20T12:51:21.282Z,13.87
2022-10-20T12:53:56.125Z,13.77
2022-10-20T12:56:22.907Z,13.99
2022-10-20T12:59:08.115Z,14.02
2022-10-20T13:01:53.627Z,13.94
2022-10-20T13:04:41.935Z,14.22
2022-10-20T13:07:11.202Z,14.70
2022-10-20T13:09:54.451Z,14.94
2022-10-20T13:12:25.270Z,15.01
2022-10-20T13:14:55.663Z,15.13
2022-10-20T13:17:27.246Z,15.28
2022-10-20T13:20:01.405Z,15.76
2022-10-20T13:22:40.286Z,15.95
2022-10-20T13:25:16.236Z,16.12
2022-10-20T13:27:42.946Z,16.41
2022-10-20T13:30:10.422Z,16.75
2022-10-20T13:32:48.030Z,16.87
2022-10-20T13:35:30.818Z,16.92
2022-10-20T13:37:59.766Z,17.05
2022-10-20T13:40:36.659Z,17.31
2022-10-20T13:43:23.575Z,17.14
2022-10-20T13:45:53.112Z,17.46
2022-10-20T13:48:31.899Z,17.52
2022-10-20T13:51:02.546Z,17.68
2022-10-20T13:53:31.725Z,17.78
2022-10-20T13:56:03.599Z,17.97
2022-10-20T13:58:30.398Z,18.00
2022-10-20T14:00:58.941Z,18.04
2022-10-20T14:03:25.493Z,18.17
2022-10-20T14:05:53.977Z,18.15
2022-10-20T14:08:23.504Z,18.21
2022-10-20T14:10:53.187Z,18.17
2022-10-20T14:13:21.815Z,18.07
2022-10-20T14:15:51.611Z,18.11
2022-10-20T14:18:21.518Z,17.77
2022-10-20T14:21:02.252Z,17.81
2022-10-20T14:23:33.554Z,17.67
2022-10-20T14:26:01.158Z,17.64
2022-10-20T14:28:32.257Z,17.55
2022-10-20T14:30:59.798Z,17.49
2022-10-20T14:33:29.029Z,17.44
2022-10-20T14:35:57.978Z,17.41
2022-10-20T14:38:29.094Z,17.32
2022-10-20T14:40:56.812Z,17.29
2022-10-20T14:43:34.546Z,17.12
2022-10-20T14:46:02.039Z,17.08
2022-10-20T14:48:35.307Z,16.96
2022-10-20T14:51:02.030Z,16.92
2022-10-20T14:53:30.048Z,16.63
2022-10-20T14:56:00.207Z,16.40
2022-10-20T14:58:32.638Z,16.38
2022-10-20T15:01:17.741Z,16.32
2022-10-20T15:03:44.383Z,16.10
2022-10-20T15:06:15.240Z,15.92
2022-10-20T15:08:54.622Z,15.79
2022-10-20T15:11:23.113Z,15.58
2022-10-20T15:13:55.197Z,15.18
2022-10-20T15:16:51.042Z,14.95
2022-10-20T15:19:46.946Z,14.50
2022-10-20T15:24:39.883Z,13.56
2022-10-20T15:27:13.198Z,13.03
2022-10-20T15:29:44.665Z,12.55
2022-10-20T15:32:12.260Z,12.19
2022-10-20T15:34:40.196Z,11.81
2022-10-20T15:37:06.955Z,11.46
2022-10-20T15:39:34.983Z,11.09
2022-10-20T15:42:01.831Z,10.90
2022-10-20T15:44:28.492Z,10.73
2022-10-20T15:46:55.721Z,10.56
2022-10-20T15:49:23.320Z,10.37
2022-10-20T15:51:50.235Z,10.09
2022-10-20T15:54:18.317Z,9.93
2022-10-20T15:56:45.033Z,9.78
2022-10-20T15:59:11.666Z,9.65
2022-10-20T16:01:38.437Z,9.50
2022-10-20T16:04:16.283Z,9.35
2022-10-20T16:06:44.165Z,9.24
2022-10-20T16:09:13.578Z,9.13
2022-10-20T16:11:43.698Z,9.00
2022-10-20T16:14:10.386Z,8.89
2022-10-20T16:16:44.338Z,8.76
2022-10-20T16:19:11.065Z,8.66
2022-10-20T16:21:37.559Z,8.57
2022-10-20T16:24:08.100Z,8.47
2022-10-20T16:26:34.641Z,8.30
2022-10-20T16:29:01.392Z,8.26
2022-10-20T16:31:28.925Z,8.14
2022-10-20T16:33:57.969Z,8.08
2022-10-20T16:36:24.469Z,8.04
2022-10-20T16:38:54.229Z,8.02
2022-10-20T16:41:20.818Z,7.94
2022-10-20T16:43:47.384Z,7.92
2022-10-20T16:46:14.694Z,7.84
2022-10-20T16:48:46.406Z,7.81
2022-10-20T16:51:15.013Z,7.83
2022-10-20T16:53:41.500Z,7.83
2022-10-20T16:56:08.464Z,7.73
2022-10-20T16:58:35.185Z,7.70
2022-10-20T17:01:01.809Z,7.68
2022-10-20T17:03:29.626Z,7.68
2022-10-20T17:05:57.435Z,7.60
2022-10-20T17:08:25.347Z,7.55
2022-10-20T17:10:56.152Z,7.50
2022-10-20T17:13:22.864Z,7.49
2022-10-20T17:15:49.819Z,7.44
2022-10-20T17:18:16.844Z,7.40
2022-10-20T17:20:43.431Z,7.34
2022-10-20T17:23:09.995Z,7.35
2022-10-20T17:25:36.904Z,7.34
2022-10-20T17:28:03.544Z,7.28
2022-10-20T17:30:30.188Z,7.28
2022-10-20T17:32:56.721Z,7.21
2022-10-20T17:35:23.287Z,7.17
2022-10-20T17:37:51.111Z,7.11
2022-10-20T17:40:21.387Z,7.13
2022-10-20T17:42:47.867Z,7.09
2022-10-20T17:45:14.504Z,7.08
2022-10-20T17:47:43.588Z,7.05
2022-10-20T17:50:10.783Z,7.00
2022-10-20T17:52:37.846Z,6.95
2022-10-20T17:55:07.129Z,6.90
2022-10-20T17:57:33.751Z,6.81
2022-10-20T18:00:03.164Z,6.78
2022-10-20T18:02:32.227Z,6.77
2022-10-20T18:04:58.777Z,6.72
2022-10-20T18:07:27.492Z,6.75
2022-10-20T18:09:54.237Z,6.73
2022-10-20T18:12:20.820Z,6.65
2022-10-20T18:14:47.490Z,6.54
2022-10-20T18:17:13.968Z,6.45
2022-10-20T18:19:40.781Z,6.35
2022-10-20T18:22:07.361Z,6.30
2022-10-20T18:24:35.167Z,6.23
2022-10-20T18:27:01.644Z,6.21
2022-10-20T18:29:28.552Z,6.17
2022-10-20T18:31:55.095Z,6.11
2022-10-20T18:34:21.634Z,6.12
2022-10-20T18:36:49.730Z,6.06
2022-10-20T18:39:16.917Z,6.04
2022-10-20T18:41:44.983Z,6.00
2022-10-20T18:44:14.703Z,6.04
2022-10-20T18:46:42.139Z,6.03
2022-10-20T18:49:21.261Z,6.03
2022-10-20T18:52:02.453Z,5.97
2022-10-20T18:54:33.631Z,5.98
2022-10-20T18:57:00.172Z,5.99
2022-10-20T18:59:36.688Z,5.95
2022-10-20T19:02:12.071Z,5.95
2022-10-20T19:04:40.290Z,5.94
2022-10-20T19:07:08.061Z,5.92
2022-10-20T19:09:34.677Z,5.89
2022-10-20T19:12:02.802Z,5.83
2022-10-20T19:14:32.399Z,5.77
2022-10-20T19:17:15.264Z,5.78
2022-10-20T19:19:46.532Z,5.72
2022-10-20T19:22:13.951Z,5.66
2022-10-20T19:24:43.751Z,5.62
2022-10-20T19:27:27.196Z,5.61
2022-10-20T19:29:55.318Z,5.56
2022-10-20T19:32:23.037Z,5.52
2022-10-20T19:34:50.636Z,5.50
2022-10-20T19:37:18.206Z,5.45
2022-10-20T19:39:44.870Z,5.42
2022-10-20T19:42:11.744Z,5.36
2022-10-20T19:44:44.995Z,5.32
2022-10-20T19:47:21.912Z,5.30
2022-10-20T19:49:59.011Z,5.34
2022-10-20T19:52:28.152Z,5.33
2022-10-20T19:54:54.957Z,5.22
2022-10-20T19:57:23.898Z,5.23
2022-10-20T19:59:54.487Z,5.23
2022-10-20T20:02:21.776Z,5.14
2022-10-20T20:05:00.636Z,5.04
2022-10-20T20:07:27.178Z,4.99
2022-10-20T20:10:02.820Z,4.98
2022-10-20T20:12:32.975Z,4.95
2022-10-20T20:15:09.048Z,4.88
2022-10-20T20:17:46.999Z,4.82
2022-10-20T20:20:29.107Z,4.84
2022-10-20T20:23:01.344Z,4.78
2022-10-20T20:25:35.333Z,4.72
2022-10-20T20:28:11.831Z,4.73
2022-10-20T20:30:43.829Z,4.75
2022-10-20T20:33:14.344Z,4.72
2022-10-20T20:35:41.301Z,4.66
2022-10-20T20:38:18.363Z,4.63
2022-10-20T20:40:49.526Z,4.62
2022-10-20T20:43:19.468Z,4.60
2022-10-20T20:45:49.048Z,4.50
2022-10-20T20:48:28.960Z,4.47
2022-10-20T20:50:58.267Z,4.37
2022-10-20T20:53:24.826Z,4.35
2022-10-20T20:56:14.767Z,4.28
2022-10-20T20:58:58.582Z,4.22
2022-10-20T21:01:34.355Z,4.20
2022-10-20T21:04:04.673Z,4.13
2022-10-20T21:06:37.944Z,4.02
2022-10-20T21:09:13.487Z,4.04
2022-10-20T21:11:42.320Z,4.08
2022-10-20T21:14:14.949Z,4.06
2022-10-20T21:16:43.893Z,4.10
2022-10-20T21:19:11.549Z,4.09
2022-10-20T21:21:46.583Z,4.10
2022-10-20T21:24:13.463Z,4.08
2022-10-20T21:26:40.065Z,4.06
2022-10-20T21:29:10.102Z,3.94
2022-10-20T21:31:41.727Z,3.95
2022-10-20T21:34:17.162Z,3.94
2022-10-20T21:36:46.763Z,3.90
2022-10-20T21:39:16.924Z,3.87
2022-10-20T21:41:50.689Z,3.88
2022-10-20T21:44:18.651Z,3.89
2022-10-20T21:46:49.596Z,3.87
2022-10-20T21:49:22.815Z,3.85
2022-10-20T21:51:55.683Z,3.85
2022-10-20T21:54:24.861Z,3.83
2022-10-20T21:56:59.690Z,3.86
2022-10-20T21:59:35.780Z,3.85
2022-10-20T22:02:16.523Z,3.85
2022-10-20T22:04:42.991Z,3.82
2022-10-20T22:07:10.089Z,3.80
2022-10-20T22:09:42.231Z,3.77
2022-10-20T22:12:08.770Z,3.76
2022-10-20T22:14:47.347Z,3.73
2022-10-20T22:17:17.060Z,3.72
2022-10-20T22:19:45.821Z,3.69
2022-10-20T22:22:16.275Z,3.65
2022-10-20T22:24:43.393Z,3.62
2022-10-20T22:27:15.630Z,3.63
2022-10-20T22:29:57.447Z,3.59
2022-10-20T22:32:27.433Z,3.55
2022-10-20T22:34:56.118Z,3.58
2022-10-20T22:37:32.146Z,3.56
2022-10-20T22:40:00.908Z,3.57
2022-10-20T22:42:27.627Z,3.56
2022-10-20T22:45:07.022Z,3.58
2022-10-20T22:47:33.551Z,3.59
2022-10-20T22:50:04.490Z,3.61
2022-10-20T22:52:31.033Z,3.59
2022-10-20T22:54:58.027Z,3.56
2022-10-20T22:57:24.684Z,3.47
2022-10-20T22:59:57.743Z,3.44
2022-10-20T23:02:24.769Z,3.46
2022-10-20T23:04:55.737Z,3.40
2022-10-20T23:07:23.431Z,3.29
2022-10-20T23:09:52.567Z,3.25
2022-10-20T23:12:21.392Z,3.25
2022-10-20T23:14:49.117Z,3.23
2022-10-20T23:17:17.180Z,3.20
2022-10-20T23:19:45.921Z,3.19
2022-10-20T23:22:14.222Z,3.18
2022-10-20T23:24:40.862Z,3.16
2022-10-20T23:27:08.169Z,3.15
2022-10-20T23:29:34.863Z,3.15
2022-10-20T23:32:03.747Z,3.14
2022-10-20T23:34:48.035Z,3.13
2022-10-20T23:37:20.371Z,3.13
2022-10-20T23:39:47.888Z,3.12
2022-10-20T23:42:14.427Z,3.16
2022-10-20T23:44:44.143Z,3.15
2022-10-20T23:47:17.326Z,3.16
2022-10-20T23:49:44.023Z,3.15
2022-10-20T23:52:11.775Z,3.14
2022-10-20T23:54:38.987Z,3.12
2022-10-20T23:57:05.697Z,3.08
2022-10-20T23:59:38.083Z,3.04
